createdAt,value
2023-03-23T15:58:57.724Z,16.90
2023-03-23T16:02:25.339Z,16.93
2023-03-23T17:11:11.763Z,14.13
2023-03-23T17:13:38.586Z,14.06
2023-03-23T17:16:05.860Z,14.13
2023-03-23T17:18:32.759Z,14.30
2023-03-23T17:20:59.578Z,14.49
2023-03-23T17:23:26.611Z,14.76
2023-03-23T17:25:54.339Z,14.89
2023-03-23T17:28:21.213Z,14.65
2023-03-23T17:30:48.560Z,14.42
2023-03-23T17:34:04.682Z,14.22
2023-03-23T17:36:31.591Z,14.16
2023-03-23T17:38:58.500Z,14.06
2023-03-23T17:41:25.613Z,13.87
2023-03-23T17:43:52.258Z,13.71
2023-03-23T17:46:19.003Z,13.57
2023-03-23T17:48:45.988Z,13.56
2023-03-23T17:51:12.710Z,13.61
2023-03-23T17:53:39.568Z,13.65
2023-03-23T17:56:06.888Z,13.63
2023-03-23T17:58:35.518Z,13.61
2023-03-23T18:01:02.746Z,13.55
2023-03-23T18:03:30.090Z,13.36
2023-03-23T18:06:02.254Z,13.13
2023-03-23T18:08:30.143Z,12.99
2023-03-23T18:10:58.199Z,12.99
2023-03-23T18:13:26.826Z,12.93
2023-03-23T18:15:55.273Z,12.80
2023-03-23T18:18:23.598Z,12.71
2023-03-23T18:21:03.159Z,12.59
2023-03-23T18:23:38.973Z,12.51
2023-03-23T18:26:13.699Z,12.40
2023-03-23T18:28:40.817Z,12.31
2023-03-23T18:31:14.145Z,12.22
2023-03-23T18:33:46.877Z,12.18
2023-03-23T18:36:18.650Z,12.21
2023-03-23T18:38:46.785Z,12.23
2023-03-23T18:41:14.498Z,12.21
2023-03-23T18:43:41.863Z,12.17
2023-03-23T18:46:08.884Z,12.16
2023-03-23T18:48:36.365Z,12.03
2023-03-23T18:51:04.241Z,11.94
2023-03-23T18:53:31.384Z,11.94
2023-03-23T18:56:16.580Z,11.90
2023-03-23T18:58:44.401Z,11.93
2023-03-23T19:01:13.738Z,12.05
2023-03-23T19:03:41.597Z,12.12
2023-03-23T19:06:35.168Z,12.14
2023-03-23T19:09:03.236Z,12.16
2023-03-23T19:11:30.194Z,12.20
2023-03-23T19:16:27.156Z,11.98
2023-03-23T19:18:53.891Z,11.80
2023-03-23T19:21:24.946Z,11.61
2023-03-23T19:23:52.610Z,11.44
2023-03-23T19:26:23.964Z,11.29
2023-03-23T19:31:23.799Z,11.12
2023-03-23T19:33:53.057Z,10.97
2023-03-23T19:36:24.318Z,10.85
2023-03-23T19:38:51.967Z,10.74
2023-03-23T19:41:19.379Z,10.71
2023-03-23T19:43:46.268Z,10.75
2023-03-23T19:46:14.556Z,10.83
2023-03-23T19:48:41.762Z,10.88
2023-03-23T19:51:09.821Z,10.94
2023-03-23T19:53:36.641Z,11.00
2023-03-23T19:56:05.130Z,11.06
2023-03-23T19:58:32.661Z,11.16
2023-03-23T20:01:01.140Z,11.20
2023-03-23T20:03:28.457Z,11.16
2023-03-23T20:06:05.839Z,10.96
2023-03-23T20:08:33.113Z,10.72
2023-03-23T20:11:08.783Z,10.52
2023-03-23T20:13:35.953Z,10.32
2023-03-23T20:16:03.257Z,10.16
2023-03-23T20:18:31.510Z,10.06
2023-03-23T20:21:10.861Z,9.96
2023-03-23T20:23:39.443Z,9.89
2023-03-23T20:26:12.568Z,9.85
2023-03-23T20:28:40.703Z,9.80
2023-03-23T20:31:23.225Z,9.71
2023-03-23T20:34:00.017Z,9.67
2023-03-23T20:36:36.339Z,9.62
2023-03-23T20:39:21.554Z,9.52
2023-03-23T20:41:50.949Z,9.45
2023-03-23T20:44:19.135Z,9.38
2023-03-23T20:46:47.960Z,9.37
2023-03-23T20:49:16.053Z,9.35
2023-03-23T20:51:43.753Z,9.29
2023-03-23T20:54:14.189Z,9.26
2023-03-23T20:56:42.486Z,9.19
2023-03-23T20:59:10.060Z,9.20
2023-03-23T21:01:40.035Z,9.16
2023-03-23T21:04:15.664Z,9.14
2023-03-23T21:06:44.407Z,9.09
2023-03-23T21:09:11.914Z,9.01
2023-03-23T21:11:38.795Z,9.00
2023-03-23T21:14:06.884Z,8.97
2023-03-23T21:16:33.893Z,8.94
2023-03-23T21:19:03.137Z,8.93
2023-03-23T21:21:30.238Z,8.90
2023-03-23T21:23:57.548Z,8.89
2023-03-23T21:26:27.908Z,8.84
2023-03-23T21:28:55.048Z,8.79
2023-03-23T21:31:25.582Z,8.74
2023-03-23T21:33:52.377Z,8.71
2023-03-23T21:36:19.495Z,8.71
2023-03-23T21:38:50.138Z,8.72
2023-03-23T21:41:16.988Z,8.67
2023-03-23T21:43:45.981Z,8.65
2023-03-23T21:46:18.168Z,8.59
2023-03-23T21:48:51.654Z,8.57
2023-03-23T21:51:24.251Z,8.55
2023-03-23T21:53:54.513Z,8.53
2023-03-23T21:56:23.295Z,8.53
2023-03-23T21:58:50.575Z,8.51
2023-03-23T22:01:18.114Z,8.51
2023-03-23T22:03:45.181Z,8.49
2023-03-23T22:06:24.957Z,8.44
2023-03-23T22:08:52.868Z,8.41
2023-03-23T22:11:25.161Z,8.41
2023-03-23T22:13:54.209Z,8.41
2023-03-23T22:16:22.252Z,8.36
2023-03-23T22:18:51.433Z,8.36
2023-03-23T22:21:20.201Z,8.36
2023-03-23T22:23:46.944Z,8.35
2023-03-23T22:26:15.569Z,8.37
2023-03-23T22:28:43.077Z,8.36
2023-03-23T22:31:17.270Z,8.34
2023-03-23T22:33:45.748Z,8.32
2023-03-23T22:36:12.658Z,8.31
2023-03-23T22:38:42.194Z,8.27
2023-03-23T22:41:13.433Z,8.23
2023-03-23T22:43:40.088Z,8.22
2023-03-23T22:46:07.315Z,8.20
2023-03-23T22:48:34.188Z,8.24
2023-03-23T22:51:01.559Z,8.26
2023-03-23T22:53:28.417Z,8.26
2023-03-23T22:55:57.194Z,8.25
2023-03-23T22:58:26.041Z,8.19
2023-03-23T23:00:59.492Z,8.13
2023-03-23T23:03:27.274Z,8.13
2023-03-23T23:05:56.027Z,8.10
2023-03-23T23:08:24.888Z,8.08
2023-03-23T23:10:53.189Z,8.07
2023-03-23T23:13:20.785Z,8.02
2023-03-23T23:15:51.685Z,8.01
2023-03-23T23:18:20.315Z,8.00
2023-03-23T23:20:55.183Z,7.99
2023-03-23T23:23:23.226Z,7.98
2023-03-23T23:25:50.834Z,7.98
2023-03-23T23:28:18.341Z,7.97
2023-03-23T23:30:45.933Z,7.94
2023-03-23T23:33:12.925Z,7.93
2023-03-23T23:35:41.035Z,7.91
2023-03-23T23:38:12.804Z,7.91
2023-03-23T23:40:41.519Z,7.91
2023-03-23T23:43:10.398Z,7.90
2023-03-23T23:45:37.527Z,7.85
2023-03-23T23:48:05.572Z,7.85
2023-03-23T23:50:32.456Z,7.83
2023-03-23T23:52:59.458Z,7.83
2023-03-23T23:55:27.172Z,7.86
2023-03-23T23:57:54.509Z,7.85
